Pagrindinis puslapis
METAR-TAF:

METAR-TAF

Oro uostai :

Marianhamina, Suomija

platuma: 60-07N, ilguma: 019-54E, Aukštis: 6 m

Dabartinis oras

Ataskaita buvo paskelbta 32 minutes, ne 22:20 UTC
Vėjas 8 kt iš Pietų
Temperatūra 6°C
Drėgmė 100%
Slėgis 1005 hPa
Matomumas: 1200 m
lietus

METAR: EFMA 172220Z AUTO 17008KT 1200 R21/1500U -SHRA VV002 06/06 Q1005

Laikas: 01:52 (22:52 UTC)

Prognozė

Ataskaita buvo paskelbta 2 valandos ir 15 minutes, ne 20:37 UTC
Prognozė galioja nuo 17 metu 21 UTC su 18 metu 06 UTC
Vėjas 6 kt iš Pietų
Matomumas: 0400 m
ne aukštis 200 ft
rūkas
Laikinai
nuo 17 metu 21 UTC su 18 metu 06 UTC
Matomumas: 1500 m
Apsiniaukę ne aukštis 100 ft
rūkana, dulksna

TAF: EFMA 172037Z 1721/1806 18006KT 0400 FG VV002 TEMPO 1721/1806 1500 BR -DZ OVC001

Orai ataskaitas ir orų prognozės (METAR, TAF).

turimą stotys yra geltonos ir raudonos taškus žemėlapyje.

Perkelti pele per norėdami pamatyti stoties vardą.

Tada spustelėkite, norėdami matyti oro stebėjimo ir prognozės.

Norėdami pakeisti žemėlapį: spustelėkite ant žalios mygtukų su juodo kryžiaus žemyn,; žalią mygtuką su brūkšneliu, jei norite nutolinti; arba žalių rodyklių gretimoms žemėlapius.


METAR-TAF: